sensor_id;sensor_type;location;lat;lon;timestamp;temperature;humidity
16305;DHT22;8261;47.678;-122.174;2022-10-16T00:02:22;23.50;99.90
16305;DHT22;8261;47.678;-122.174;2022-10-16T00:04:54;23.50;99.90
16305;DHT22;8261;47.678;-122.174;2022-10-16T00:07:26;23.40;99.90
16305;DHT22;8261;47.678;-122.174;2022-10-16T00:10:00;23.30;99.90
16305;DHT22;8261;47.678;-122.174;2022-10-16T00:12:32;23.20;99.90
16305;DHT22;8261;47.678;-122.174;2022-10-16T00:15:05;23.10;99.90
16305;DHT22;8261;47.678;-122.174;2022-10-16T00:17:37;22.90;99.90
16305;DHT22;8261;47.678;-122.174;2022-10-16T00:20:08;22.80;99.90
16305;DHT22;8261;47.678;-122.174;2022-10-16T00:22:40;22.80;99.90
16305;DHT22;8261;47.678;-122.174;2022-10-16T00:25:13;22.80;99.90
16305;DHT22;8261;47.678;-122.174;2022-10-16T00:27:45;22.70;99.90
16305;DHT22;8261;47.678;-122.174;2022-10-16T00:30:17;22.60;99.90
16305;DHT22;8261;47.678;-122.174;2022-10-16T00:32:48;22.50;99.90
16305;DHT22;8261;47.678;-122.174;2022-10-16T00:35:19;22.40;99.90
16305;DHT22;8261;47.678;-122.174;2022-10-16T00:37:50;22.30;99.90
16305;DHT22;8261;47.678;-122.174;2022-10-16T00:40:23;22.10;99.90
16305;DHT22;8261;47.678;-122.174;2022-10-16T00:42:54;22.00;99.90
16305;DHT22;8261;47.678;-122.174;2022-10-16T00:45:26;21.80;99.90
16305;DHT22;8261;47.678;-122.174;2022-10-16T00:47:58;21.70;99.90
16305;DHT22;8261;47.678;-122.174;2022-10-16T00:50:31;21.60;99.90
16305;DHT22;8261;47.678;-122.174;2022-10-16T00:53:03;21.50;99.90
16305;DHT22;8261;47.678;-122.174;2022-10-16T00:55:37;21.40;99.90
16305;DHT22;8261;47.678;-122.174;2022-10-16T00:58:10;21.30;99.90
16305;DHT22;8261;47.678;-122.174;2022-10-16T01:00:42;21.10;99.90
16305;DHT22;8261;47.678;-122.174;2022-10-16T01:03:28;20.90;99.90
16305;DHT22;8261;47.678;-122.174;2022-10-16T01:06:14;20.80;99.90
16305;DHT22;8261;47.678;-122.174;2022-10-16T01:08:58;20.60;99.90
16305;DHT22;8261;47.678;-122.174;2022-10-16T01:11:38;20.50;99.90
16305;DHT22;8261;47.678;-122.174;2022-10-16T01:14:17;20.40;99.90
16305;DHT22;8261;47.678;-122.174;2022-10-16T01:16:55;20.20;99.90
16305;DHT22;8261;47.678;-122.174;2022-10-16T01:19:43;20.00;99.90
16305;DHT22;8261;47.678;-122.174;2022-10-16T01:22:16;19.90;99.90
16305;DHT22;8261;47.678;-122.174;2022-10-16T01:24:49;19.80;99.90
16305;DHT22;8261;47.678;-122.174;2022-10-16T01:27:25;19.60;99.90
16305;DHT22;8261;47.678;-122.174;2022-10-16T01:30:04;19.50;99.90
16305;DHT22;8261;47.678;-122.174;2022-10-16T01:32:40;19.50;99.90
16305;DHT22;8261;47.678;-122.174;2022-10-16T01:35:17;19.40;99.90
16305;DHT22;8261;47.678;-122.174;2022-10-16T01:37:53;19.30;99.90
16305;DHT22;8261;47.678;-122.174;2022-10-16T01:40:27;19.10;99.90
16305;DHT22;8261;47.678;-122.174;2022-10-16T01:43:04;19.10;99.90
16305;DHT22;8261;47.678;-122.174;2022-10-16T01:45:36;19.00;99.90
16305;DHT22;8261;47.678;-122.174;2022-10-16T01:48:08;18.90;99.90
16305;DHT22;8261;47.678;-122.174;2022-10-16T01:50:42;18.80;99.90
16305;DHT22;8261;47.678;-122.174;2022-10-16T01:53:16;18.70;99.90
16305;DHT22;8261;47.678;-122.174;2022-10-16T01:55:48;18.70;99.90
16305;DHT22;8261;47.678;-122.174;2022-10-16T01:58:24;18.70;99.90
16305;DHT22;8261;47.678;-122.174;2022-10-16T02:00:56;18.60;99.90
16305;DHT22;8261;47.678;-122.174;2022-10-16T02:03:28;18.50;99.90
16305;DHT22;8261;47.678;-122.174;2022-10-16T02:06:00;18.40;99.90
16305;DHT22;8261;47.678;-122.174;2022-10-16T02:08:32;18.30;99.90
16305;DHT22;8261;47.678;-122.174;2022-10-16T02:11:04;18.30;99.90
16305;DHT22;8261;47.678;-122.174;2022-10-16T02:13:39;18.20;99.90
16305;DHT22;8261;47.678;-122.174;2022-10-16T02:16:13;18.20;99.90
16305;DHT22;8261;47.678;-122.174;2022-10-16T02:18:45;18.20;99.90
16305;DHT22;8261;47.678;-122.174;2022-10-16T02:21:21;18.10;99.90
16305;DHT22;8261;47.678;-122.174;2022-10-16T02:23:57;18.10;99.90
16305;DHT22;8261;47.678;-122.174;2022-10-16T02:26:36;18.00;99.90
16305;DHT22;8261;47.678;-122.174;2022-10-16T02:29:13;17.90;99.90
16305;DHT22;8261;47.678;-122.174;2022-10-16T02:31:48;17.90;99.90
16305;DHT22;8261;47.678;-122.174;2022-10-16T02:34:22;17.80;99.90
16305;DHT22;8261;47.678;-122.174;2022-10-16T02:36:55;17.70;99.90
16305;DHT22;8261;47.678;-122.174;2022-10-16T02:39:27;17.60;99.90
16305;DHT22;8261;47.678;-122.174;2022-10-16T02:41:59;17.50;99.90
16305;DHT22;8261;47.678;-122.174;2022-10-16T02:44:32;17.50;99.90
16305;DHT22;8261;47.678;-122.174;2022-10-16T02:47:03;17.40;99.90
16305;DHT22;8261;47.678;-122.174;2022-10-16T02:49:34;17.30;99.90
16305;DHT22;8261;47.678;-122.174;2022-10-16T02:52:06;17.30;99.90
16305;DHT22;8261;47.678;-122.174;2022-10-16T02:54:37;17.20;99.90
16305;DHT22;8261;47.678;-122.174;2022-10-16T02:57:08;17.10;99.90
16305;DHT22;8261;47.678;-122.174;2022-10-16T02:59:42;17.10;99.90
16305;DHT22;8261;47.678;-122.174;2022-10-16T03:02:13;17.00;99.90
16305;DHT22;8261;47.678;-122.174;2022-10-16T03:04:44;16.90;99.90
16305;DHT22;8261;47.678;-122.174;2022-10-16T03:07:16;16.90;99.90
16305;DHT22;8261;47.678;-122.174;2022-10-16T03:09:48;16.80;99.90
16305;DHT22;8261;47.678;-122.174;2022-10-16T03:12:21;16.80;99.90
16305;DHT22;8261;47.678;-122.174;2022-10-16T03:47:19;16.20;99.90
16305;DHT22;8261;47.678;-122.174;2022-10-16T03:52:28;16.10;99.90
16305;DHT22;8261;47.678;-122.174;2022-10-16T03:55:01;16.10;99.90
16305;DHT22;8261;47.678;-122.174;2022-10-16T03:57:35;16.00;99.90
16305;DHT22;8261;47.678;-122.174;2022-10-16T04:00:09;15.90;99.90
16305;DHT22;8261;47.678;-122.174;2022-10-16T04:02:46;15.90;99.90
16305;DHT22;8261;47.678;-122.174;2022-10-16T04:05:18;15.90;99.90
16305;DHT22;8261;47.678;-122.174;2022-10-16T04:07:53;15.90;99.90
16305;DHT22;8261;47.678;-122.174;2022-10-16T04:10:26;15.90;99.90
16305;DHT22;8261;47.678;-122.174;2022-10-16T04:12:58;15.80;99.90
16305;DHT22;8261;47.678;-122.174;2022-10-16T04:15:32;15.80;99.90
16305;DHT22;8261;47.678;-122.174;2022-10-16T04:18:09;15.70;99.90
16305;DHT22;8261;47.678;-122.174;2022-10-16T04:20:44;15.70;99.90
16305;DHT22;8261;47.678;-122.174;2022-10-16T04:23:18;15.60;99.90
16305;DHT22;8261;47.678;-122.174;2022-10-16T04:25:52;15.60;99.90
16305;DHT22;8261;47.678;-122.174;2022-10-16T04:28:26;15.60;99.90
16305;DHT22;8261;47.678;-122.174;2022-10-16T04:41:54;15.50;99.90
16305;DHT22;8261;47.678;-122.174;2022-10-16T04:44:27;15.50;99.90
16305;DHT22;8261;47.678;-122.174;2022-10-16T04:47:03;15.30;99.90
16305;DHT22;8261;47.678;-122.174;2022-10-16T04:49:35;15.30;99.90
16305;DHT22;8261;47.678;-122.174;2022-10-16T04:52:09;15.30;99.90
16305;DHT22;8261;47.678;-122.174;2022-10-16T04:54:41;15.20;99.90
16305;DHT22;8261;47.678;-122.174;2022-10-16T04:57:19;15.20;99.90
16305;DHT22;8261;47.678;-122.174;2022-10-16T04:59:54;15.10;99.90
16305;DHT22;8261;47.678;-122.174;2022-10-16T05:02:27;15.20;99.90
16305;DHT22;8261;47.678;-122.174;2022-10-16T05:05:00;15.10;99.90
16305;DHT22;8261;47.678;-122.174;2022-10-16T05:07:33;15.10;99.90
16305;DHT22;8261;47.678;-122.174;2022-10-16T05:10:05;15.20;99.90
16305;DHT22;8261;47.678;-122.174;2022-10-16T05:12:39;15.10;99.90
16305;DHT22;8261;47.678;-122.174;2022-10-16T05:15:11;15.10;99.90
16305;DHT22;8261;47.678;-122.174;2022-10-16T05:17:44;15.10;99.90
16305;DHT22;8261;47.678;-122.174;2022-10-16T05:20:17;15.00;99.90
16305;DHT22;8261;47.678;-122.174;2022-10-16T05:22:50;15.00;99.90
16305;DHT22;8261;47.678;-122.174;2022-10-16T05:25:22;15.10;99.90
16305;DHT22;8261;47.678;-122.174;2022-10-16T05:27:57;15.00;99.90
16305;DHT22;8261;47.678;-122.174;2022-10-16T05:30:30;15.10;99.90
16305;DHT22;8261;47.678;-122.174;2022-10-16T05:33:02;15.10;99.90
16305;DHT22;8261;47.678;-122.174;2022-10-16T05:41:23;15.20;99.90
16305;DHT22;8261;47.678;-122.174;2022-10-16T05:43:59;15.20;99.90
16305;DHT22;8261;47.678;-122.174;2022-10-16T06:02:58;15.30;99.90
16305;DHT22;8261;47.678;-122.174;2022-10-16T06:38:17;15.70;99.90
16305;DHT22;8261;47.678;-122.174;2022-10-16T06:46:25;15.60;99.90
16305;DHT22;8261;47.678;-122.174;2022-10-16T06:48:57;15.50;99.90
16305;DHT22;8261;47.678;-122.174;2022-10-16T06:51:32;15.40;99.90
16305;DHT22;8261;47.678;-122.174;2022-10-16T06:54:15;15.30;99.90
16305;DHT22;8261;47.678;-122.174;2022-10-16T06:56:47;15.30;99.90
16305;DHT22;8261;47.678;-122.174;2022-10-16T06:59:19;15.20;99.90
16305;DHT22;8261;47.678;-122.174;2022-10-16T07:01:50;15.10;99.90
16305;DHT22;8261;47.678;-122.174;2022-10-16T07:04:23;15.00;99.90
16305;DHT22;8261;47.678;-122.174;2022-10-16T07:06:57;15.00;99.90
16305;DHT22;8261;47.678;-122.174;2022-10-16T08:22:51;14.70;99.90
16305;DHT22;8261;47.678;-122.174;2022-10-16T08:25:30;14.80;99.90
16305;DHT22;8261;47.678;-122.174;2022-10-16T08:28:08;14.80;99.90
16305;DHT22;8261;47.678;-122.174;2022-10-16T08:33:18;14.70;99.90
16305;DHT22;8261;47.678;-122.174;2022-10-16T08:35:56;14.70;99.90
16305;DHT22;8261;47.678;-122.174;2022-10-16T08:38:38;14.80;99.90
16305;DHT22;8261;47.678;-122.174;2022-10-16T08:46:34;14.80;99.90
16305;DHT22;8261;47.678;-122.174;2022-10-16T08:49:22;14.80;99.90
16305;DHT22;8261;47.678;-122.174;2022-10-16T08:52:04;14.70;99.90
16305;DHT22;8261;47.678;-122.174;2022-10-16T08:54:55;14.80;99.90
16305;DHT22;8261;47.678;-122.174;2022-10-16T08:57:35;14.70;99.90
16305;DHT22;8261;47.678;-122.174;2022-10-16T09:00:21;14.60;99.90
16305;DHT22;8261;47.678;-122.174;2022-10-16T09:03:23;14.60;99.90
16305;DHT22;8261;47.678;-122.174;2022-10-16T09:06:24;14.60;99.90
16305;DHT22;8261;47.678;-122.174;2022-10-16T09:09:26;14.60;99.90
16305;DHT22;8261;47.678;-122.174;2022-10-16T09:53:08;14.30;99.90
16305;DHT22;8261;47.678;-122.174;2022-10-16T09:55:49;14.30;99.90
16305;DHT22;8261;47.678;-122.174;2022-10-16T10:01:17;14.20;99.90
16305;DHT22;8261;47.678;-122.174;2022-10-16T10:04:00;14.20;99.90
16305;DHT22;8261;47.678;-122.174;2022-10-16T10:06:40;14.20;99.90
16305;DHT22;8261;47.678;-122.174;2022-10-16T10:09:22;14.20;99.90
16305;DHT22;8261;47.678;-122.174;2022-10-16T10:11:58;14.20;99.90
16305;DHT22;8261;47.678;-122.174;2022-10-16T10:14:39;14.20;99.90
16305;DHT22;8261;47.678;-122.174;2022-10-16T10:17:16;14.20;99.90
16305;DHT22;8261;47.678;-122.174;2022-10-16T10:19:52;14.20;99.90
16305;DHT22;8261;47.678;-122.174;2022-10-16T10:22:31;14.20;99.90
16305;DHT22;8261;47.678;-122.174;2022-10-16T10:25:23;14.20;99.90
16305;DHT22;8261;47.678;-122.174;2022-10-16T10:31:05;14.20;99.90
16305;DHT22;8261;47.678;-122.174;2022-10-16T10:33:48;14.20;99.90
16305;DHT22;8261;47.678;-122.174;2022-10-16T10:36:30;14.20;99.90
16305;DHT22;8261;47.678;-122.174;2022-10-16T10:39:08;14.20;99.90
16305;DHT22;8261;47.678;-122.174;2022-10-16T10:45:07;14.10;99.90
16305;DHT22;8261;47.678;-122.174;2022-10-16T10:47:50;14.10;99.90
16305;DHT22;8261;47.678;-122.174;2022-10-16T10:50:29;14.00;99.90
16305;DHT22;8261;47.678;-122.174;2022-10-16T10:53:10;14.00;99.90
16305;DHT22;8261;47.678;-122.174;2022-10-16T10:55:48;14.00;99.90
16305;DHT22;8261;47.678;-122.174;2022-10-16T11:01:37;13.90;99.90
16305;DHT22;8261;47.678;-122.174;2022-10-16T11:04:49;14.00;99.90
16305;DHT22;8261;47.678;-122.174;2022-10-16T11:07:30;13.90;99.90
16305;DHT22;8261;47.678;-122.174;2022-10-16T11:10:09;13.90;99.90
16305;DHT22;8261;47.678;-122.174;2022-10-16T11:12:47;13.90;99.90
16305;DHT22;8261;47.678;-122.174;2022-10-16T11:15:25;13.90;99.90
16305;DHT22;8261;47.678;-122.174;2022-10-16T11:18:04;13.90;99.90
16305;DHT22;8261;47.678;-122.174;2022-10-16T11:20:42;13.90;99.90
16305;DHT22;8261;47.678;-122.174;2022-10-16T11:23:17;13.90;99.90
16305;DHT22;8261;47.678;-122.174;2022-10-16T11:25:52;13.90;99.90
16305;DHT22;8261;47.678;-122.174;2022-10-16T11:28:32;13.90;99.90
16305;DHT22;8261;47.678;-122.174;2022-10-16T11:31:16;13.90;99.90
16305;DHT22;8261;47.678;-122.174;2022-10-16T11:33:59;13.90;99.90
16305;DHT22;8261;47.678;-122.174;2022-10-16T11:36:40;14.00;99.90
16305;DHT22;8261;47.678;-122.174;2022-10-16T11:39:20;14.00;99.90
16305;DHT22;8261;47.678;-122.174;2022-10-16T11:41:59;14.00;99.90
16305;DHT22;8261;47.678;-122.174;2022-10-16T11:44:44;14.10;99.90
16305;DHT22;8261;47.678;-122.174;2022-10-16T11:47:39;14.10;99.90
16305;DHT22;8261;47.678;-122.174;2022-10-16T11:50:30;14.00;99.90
16305;DHT22;8261;47.678;-122.174;2022-10-16T11:53:13;14.00;99.90
16305;DHT22;8261;47.678;-122.174;2022-10-16T11:55:46;14.00;99.90
16305;DHT22;8261;47.678;-122.174;2022-10-16T11:58:24;13.90;99.90
16305;DHT22;8261;47.678;-122.174;2022-10-16T12:01:02;13.90;99.90
16305;DHT22;8261;47.678;-122.174;2022-10-16T12:03:44;13.90;99.90
16305;DHT22;8261;47.678;-122.174;2022-10-16T12:06:29;13.80;99.90
16305;DHT22;8261;47.678;-122.174;2022-10-16T12:09:03;13.80;99.90
16305;DHT22;8261;47.678;-122.174;2022-10-16T12:11:37;13.80;99.90
16305;DHT22;8261;47.678;-122.174;2022-10-16T12:14:33;13.70;99.90
16305;DHT22;8261;47.678;-122.174;2022-10-16T12:17:26;13.70;99.90
16305;DHT22;8261;47.678;-122.174;2022-10-16T12:20:20;13.70;99.90
16305;DHT22;8261;47.678;-122.174;2022-10-16T12:22:54;13.70;99.90
16305;DHT22;8261;47.678;-122.174;2022-10-16T12:25:29;13.70;99.90
16305;DHT22;8261;47.678;-122.174;2022-10-16T12:28:03;13.70;99.90
16305;DHT22;8261;47.678;-122.174;2022-10-16T12:30:37;13.70;99.90
16305;DHT22;8261;47.678;-122.174;2022-10-16T12:33:21;13.70;99.90
16305;DHT22;8261;47.678;-122.174;2022-10-16T12:35:59;13.70;99.90
16305;DHT22;8261;47.678;-122.174;2022-10-16T12:38:36;13.60;99.90
16305;DHT22;8261;47.678;-122.174;2022-10-16T12:41:10;13.60;99.90
16305;DHT22;8261;47.678;-122.174;2022-10-16T12:43:47;13.70;99.90
16305;DHT22;8261;47.678;-122.174;2022-10-16T12:49:06;13.70;99.90
16305;DHT22;8261;47.678;-122.174;2022-10-16T12:51:44;13.60;99.90
16305;DHT22;8261;47.678;-122.174;2022-10-16T12:54:26;13.70;99.90
16305;DHT22;8261;47.678;-122.174;2022-10-16T12:57:17;13.70;99.90
16305;DHT22;8261;47.678;-122.174;2022-10-16T13:00:00;13.70;99.90
16305;DHT22;8261;47.678;-122.174;2022-10-16T13:02:56;13.70;99.90
16305;DHT22;8261;47.678;-122.174;2022-10-16T13:05:52;13.70;99.90
16305;DHT22;8261;47.678;-122.174;2022-10-16T13:08:44;13.70;99.90
16305;DHT22;8261;47.678;-122.174;2022-10-16T13:11:24;13.70;99.90
16305;DHT22;8261;47.678;-122.174;2022-10-16T13:14:14;13.70;99.90
16305;DHT22;8261;47.678;-122.174;2022-10-16T13:16:59;13.60;99.90
16305;DHT22;8261;47.678;-122.174;2022-10-16T13:19:38;13.70;99.90
16305;DHT22;8261;47.678;-122.174;2022-10-16T13:22:21;13.70;99.90
16305;DHT22;8261;47.678;-122.174;2022-10-16T13:25:08;13.70;99.90
16305;DHT22;8261;47.678;-122.174;2022-10-16T13:27:49;13.70;99.90
16305;DHT22;8261;47.678;-122.174;2022-10-16T13:38:26;13.80;99.90
16305;DHT22;8261;47.678;-122.174;2022-10-16T13:43:32;13.90;99.90
16305;DHT22;8261;47.678;-122.174;2022-10-16T13:46:12;14.00;99.90
16305;DHT22;8261;47.678;-122.174;2022-10-16T13:48:57;14.10;99.90
16305;DHT22;8261;47.678;-122.174;2022-10-16T13:51:33;14.10;99.90
16305;DHT22;8261;47.678;-122.174;2022-10-16T13:54:07;14.10;99.90
16305;DHT22;8261;47.678;-122.174;2022-10-16T13:56:52;14.10;99.90
16305;DHT22;8261;47.678;-122.174;2022-10-16T14:45:20;14.30;99.90
16305;DHT22;8261;47.678;-122.174;2022-10-16T14:47:56;14.30;99.90
16305;DHT22;8261;47.678;-122.174;2022-10-16T14:50:33;14.30;99.90
16305;DHT22;8261;47.678;-122.174;2022-10-16T14:53:14;14.30;99.90
16305;DHT22;8261;47.678;-122.174;2022-10-16T14:55:46;14.30;99.90
16305;DHT22;8261;47.678;-122.174;2022-10-16T14:58:21;14.30;99.90
16305;DHT22;8261;47.678;-122.174;2022-10-16T15:00:57;14.30;99.90
16305;DHT22;8261;47.678;-122.174;2022-10-16T15:03:32;14.30;99.90
16305;DHT22;8261;47.678;-122.174;2022-10-16T15:06:27;14.20;99.90
16305;DHT22;8261;47.678;-122.174;2022-10-16T15:09:01;14.30;99.90
16305;DHT22;8261;47.678;-122.174;2022-10-16T15:11:41;14.30;99.90
16305;DHT22;8261;47.678;-122.174;2022-10-16T15:52:12;15.30;99.90
16305;DHT22;8261;47.678;-122.174;2022-10-16T16:02:50;16.20;99.90
16305;DHT22;8261;47.678;-122.174;2022-10-16T16:05:23;16.40;99.90
16305;DHT22;8261;47.678;-122.174;2022-10-16T16:07:57;16.60;99.90
16305;DHT22;8261;47.678;-122.174;2022-10-16T16:10:28;16.70;99.90
16305;DHT22;8261;47.678;-122.174;2022-10-16T16:13:00;16.80;99.90
16305;DHT22;8261;47.678;-122.174;2022-10-16T16:15:32;16.90;99.90
16305;DHT22;8261;47.678;-122.174;2022-10-16T16:18:03;16.90;99.90
16305;DHT22;8261;47.678;-122.174;2022-10-16T16:20:35;17.00;99.90
16305;DHT22;8261;47.678;-122.174;2022-10-16T16:23:15;17.20;99.90
16305;DHT22;8261;47.678;-122.174;2022-10-16T16:26:05;17.40;99.90
16305;DHT22;8261;47.678;-122.174;2022-10-16T16:28:37;17.90;99.90
16305;DHT22;8261;47.678;-122.174;2022-10-16T16:31:09;18.00;99.90
16305;DHT22;8261;47.678;-122.174;2022-10-16T16:33:40;18.10;99.90
16305;DHT22;8261;47.678;-122.174;2022-10-16T16:36:11;18.20;99.90
16305;DHT22;8261;47.678;-122.174;2022-10-16T16:38:45;18.30;99.90
16305;DHT22;8261;47.678;-122.174;2022-10-16T16:41:17;18.30;99.90
16305;DHT22;8261;47.678;-122.174;2022-10-16T16:43:49;18.40;99.90
16305;DHT22;8261;47.678;-122.174;2022-10-16T16:46:22;18.70;99.90
16305;DHT22;8261;47.678;-122.174;2022-10-16T16:48:53;18.80;99.90
16305;DHT22;8261;47.678;-122.174;2022-10-16T16:51:24;19.00;99.90
16305;DHT22;8261;47.678;-122.174;2022-10-16T16:53:58;19.10;99.90
16305;DHT22;8261;47.678;-122.174;2022-10-16T16:56:38;19.20;99.90
16305;DHT22;8261;47.678;-122.174;2022-10-16T16:59:13;19.40;99.90
16305;DHT22;8261;47.678;-122.174;2022-10-16T17:01:46;19.40;99.90
16305;DHT22;8261;47.678;-122.174;2022-10-16T17:04:24;19.50;99.90
16305;DHT22;8261;47.678;-122.174;2022-10-16T17:06:58;19.70;99.90
16305;DHT22;8261;47.678;-122.174;2022-10-16T17:09:34;19.70;99.90
16305;DHT22;8261;47.678;-122.174;2022-10-16T17:12:09;19.80;99.90
16305;DHT22;8261;47.678;-122.174;2022-10-16T17:14:41;20.40;99.90
16305;DHT22;8261;47.678;-122.174;2022-10-16T17:17:12;20.50;99.90
16305;DHT22;8261;47.678;-122.174;2022-10-16T17:19:44;20.60;99.90
16305;DHT22;8261;47.678;-122.174;2022-10-16T17:22:17;20.70;99.90
16305;DHT22;8261;47.678;-122.174;2022-10-16T17:24:51;20.80;99.90
16305;DHT22;8261;47.678;-122.174;2022-10-16T17:27:24;21.00;99.90
16305;DHT22;8261;47.678;-122.174;2022-10-16T17:29:57;21.10;99.90
16305;DHT22;8261;47.678;-122.174;2022-10-16T17:32:29;21.20;99.90
16305;DHT22;8261;47.678;-122.174;2022-10-16T17:35:04;21.40;99.90
16305;DHT22;8261;47.678;-122.174;2022-10-16T17:37:42;21.70;99.90
16305;DHT22;8261;47.678;-122.174;2022-10-16T17:40:20;21.90;99.90
16305;DHT22;8261;47.678;-122.174;2022-10-16T17:42:52;22.60;97.30
16305;DHT22;8261;47.678;-122.174;2022-10-16T17:45:24;22.60;97.00
16305;DHT22;8261;47.678;-122.174;2022-10-16T17:47:58;22.80;96.80
16305;DHT22;8261;47.678;-122.174;2022-10-16T17:50:29;22.80;97.20
16305;DHT22;8261;47.678;-122.174;2022-10-16T17:53:07;22.80;96.40
16305;DHT22;8261;47.678;-122.174;2022-10-16T17:55:42;23.00;95.10
16305;DHT22;8261;47.678;-122.174;2022-10-16T17:58:13;23.40;94.30
16305;DHT22;8261;47.678;-122.174;2022-10-16T18:00:48;23.50;93.80
16305;DHT22;8261;47.678;-122.174;2022-10-16T18:03:19;23.50;93.70
16305;DHT22;8261;47.678;-122.174;2022-10-16T18:05:53;23.70;93.40
16305;DHT22;8261;47.678;-122.174;2022-10-16T18:08:25;23.80;91.90
16305;DHT22;8261;47.678;-122.174;2022-10-16T18:11:00;23.90;91.30
16305;DHT22;8261;47.678;-122.174;2022-10-16T18:13:32;24.20;90.40
16305;DHT22;8261;47.678;-122.174;2022-10-16T18:16:05;24.40;88.60
16305;DHT22;8261;47.678;-122.174;2022-10-16T18:18:41;24.60;89.40
16305;DHT22;8261;47.678;-122.174;2022-10-16T18:21:17;24.80;85.50
16305;DHT22;8261;47.678;-122.174;2022-10-16T18:23:49;24.80;87.90
16305;DHT22;8261;47.678;-122.174;2022-10-16T18:26:23;24.80;84.60
16305;DHT22;8261;47.678;-122.174;2022-10-16T18:28:56;25.20;84.30
16305;DHT22;8261;47.678;-122.174;2022-10-16T18:31:28;25.10;83.70
16305;DHT22;8261;47.678;-122.174;2022-10-16T18:34:00;25.40;80.20
16305;DHT22;8261;47.678;-122.174;2022-10-16T18:36:34;25.50;80.00
16305;DHT22;8261;47.678;-122.174;2022-10-16T18:39:06;25.60;78.70
16305;DHT22;8261;47.678;-122.174;2022-10-16T18:41:42;25.70;78.40
16305;DHT22;8261;47.678;-122.174;2022-10-16T18:44:16;25.80;76.40
16305;DHT22;8261;47.678;-122.174;2022-10-16T18:46:47;26.20;74.80
16305;DHT22;8261;47.678;-122.174;2022-10-16T18:49:20;26.10;75.30
16305;DHT22;8261;47.678;-122.174;2022-10-16T18:51:53;26.10;75.50
16305;DHT22;8261;47.678;-122.174;2022-10-16T18:54:25;26.10;74.40
16305;DHT22;8261;47.678;-122.174;2022-10-16T18:56:59;26.10;75.00
16305;DHT22;8261;47.678;-122.174;2022-10-16T18:59:31;26.30;73.20
16305;DHT22;8261;47.678;-122.174;2022-10-16T19:02:03;26.70;72.60
16305;DHT22;8261;47.678;-122.174;2022-10-16T19:04:35;26.70;71.80
16305;DHT22;8261;47.678;-122.174;2022-10-16T19:07:07;27.10;69.50
16305;DHT22;8261;47.678;-122.174;2022-10-16T19:09:38;27.20;68.80
16305;DHT22;8261;47.678;-122.174;2022-10-16T19:12:13;27.20;68.60
16305;DHT22;8261;47.678;-122.174;2022-10-16T19:14:44;27.30;66.80
16305;DHT22;8261;47.678;-122.174;2022-10-16T19:17:18;27.30;67.10
16305;DHT22;8261;47.678;-122.174;2022-10-16T19:19:49;27.10;68.40
16305;DHT22;8261;47.678;-122.174;2022-10-16T19:22:23;27.20;66.40
16305;DHT22;8261;47.678;-122.174;2022-10-16T19:25:09;27.10;68.00
16305;DHT22;8261;47.678;-122.174;2022-10-16T19:27:43;27.60;64.30
16305;DHT22;8261;47.678;-122.174;2022-10-16T19:30:14;27.90;64.00
16305;DHT22;8261;47.678;-122.174;2022-10-16T19:32:46;28.20;62.60
16305;DHT22;8261;47.678;-122.174;2022-10-16T19:35:17;27.90;63.70
16305;DHT22;8261;47.678;-122.174;2022-10-16T19:37:49;27.80;64.30
16305;DHT22;8261;47.678;-122.174;2022-10-16T19:40:22;27.90;64.70
16305;DHT22;8261;47.678;-122.174;2022-10-16T19:42:56;27.70;65.00
16305;DHT22;8261;47.678;-122.174;2022-10-16T19:45:28;27.60;70.40
16305;DHT22;8261;47.678;-122.174;2022-10-16T19:48:00;27.40;74.40
16305;DHT22;8261;47.678;-122.174;2022-10-16T19:50:32;27.00;74.60
16305;DHT22;8261;47.678;-122.174;2022-10-16T19:53:03;26.80;74.70
16305;DHT22;8261;47.678;-122.174;2022-10-16T19:55:35;26.60;75.60
16305;DHT22;8261;47.678;-122.174;2022-10-16T20:14:25;26.80;74.90
16305;DHT22;8261;47.678;-122.174;2022-10-16T20:16:58;26.80;75.50
16305;DHT22;8261;47.678;-122.174;2022-10-16T20:19:44;26.90;75.80
16305;DHT22;8261;47.678;-122.174;2022-10-16T20:49:44;27.80;75.90
16305;DHT22;8261;47.678;-122.174;2022-10-16T22:07:50;30.40;65.30
16305;DHT22;8261;47.678;-122.174;2022-10-16T22:10:21;30.50;64.70
16305;DHT22;8261;47.678;-122.174;2022-10-16T22:12:52;30.60;66.50
16305;DHT22;8261;47.678;-122.174;2022-10-16T22:15:24;30.70;67.30
16305;DHT22;8261;47.678;-122.174;2022-10-16T22:17:55;30.70;64.50
16305;DHT22;8261;47.678;-122.174;2022-10-16T22:20:26;30.80;63.40
16305;DHT22;8261;47.678;-122.174;2022-10-16T22:23:00;31.00;60.60
16305;DHT22;8261;47.678;-122.174;2022-10-16T22:25:33;31.10;59.80
16305;DHT22;8261;47.678;-122.174;2022-10-16T22:28:04;31.20;57.50
16305;DHT22;8261;47.678;-122.174;2022-10-16T22:30:36;31.30;57.00
16305;DHT22;8261;47.678;-122.174;2022-10-16T22:33:07;31.40;59.50
16305;DHT22;8261;47.678;-122.174;2022-10-16T22:35:39;31.50;56.60
16305;DHT22;8261;47.678;-122.174;2022-10-16T22:38:14;31.60;56.50
16305;DHT22;8261;47.678;-122.174;2022-10-16T22:40:47;31.70;57.70
16305;DHT22;8261;47.678;-122.174;2022-10-16T22:43:20;31.70;56.60
16305;DHT22;8261;47.678;-122.174;2022-10-16T22:45:53;31.70;56.30
16305;DHT22;8261;47.678;-122.174;2022-10-16T22:48:25;31.60;56.50
16305;DHT22;8261;47.678;-122.174;2022-10-16T22:50:56;31.50;56.00
16305;DHT22;8261;47.678;-122.174;2022-10-16T22:53:33;31.40;55.90
16305;DHT22;8261;47.678;-122.174;2022-10-16T22:56:06;31.20;56.50
16305;DHT22;8261;47.678;-122.174;2022-10-16T22:58:38;31.10;55.50
16305;DHT22;8261;47.678;-122.174;2022-10-16T23:01:14;30.90;57.90
16305;DHT22;8261;47.678;-122.174;2022-10-16T23:03:47;30.60;58.70
16305;DHT22;8261;47.678;-122.174;2022-10-16T23:06:18;30.20;58.60
16305;DHT22;8261;47.678;-122.174;2022-10-16T23:08:54;29.90;56.60
16305;DHT22;8261;47.678;-122.174;2022-10-16T23:11:27;29.80;57.20
16305;DHT22;8261;47.678;-122.174;2022-10-16T23:14:01;29.60;58.10
16305;DHT22;8261;47.678;-122.174;2022-10-16T23:16:32;29.60;57.00
16305;DHT22;8261;47.678;-122.174;2022-10-16T23:19:04;29.50;57.90
16305;DHT22;8261;47.678;-122.174;2022-10-16T23:21:35;29.50;57.40
16305;DHT22;8261;47.678;-122.174;2022-10-16T23:24:10;29.40;57.80
16305;DHT22;8261;47.678;-122.174;2022-10-16T23:26:41;29.20;58.10
16305;DHT22;8261;47.678;-122.174;2022-10-16T23:29:12;29.00;58.30
16305;DHT22;8261;47.678;-122.174;2022-10-16T23:31:46;28.90;57.40
16305;DHT22;8261;47.678;-122.174;2022-10-16T23:34:17;28.90;57.20
16305;DHT22;8261;47.678;-122.174;2022-10-16T23:36:48;28.80;57.90
16305;DHT22;8261;47.678;-122.174;2022-10-16T23:39:23;28.80;59.50
16305;DHT22;8261;47.678;-122.174;2022-10-16T23:41:54;28.70;58.80